sensor_id;sensor_type;location;lat;lon;timestamp;pressure;altitude;pressure_sealevel;temperature;humidity
31082;BME280;17737;52.586;13.284;2023-12-20T00:02:17;100513.16;;;8.09;100.00
31082;BME280;17737;52.586;13.284;2023-12-20T00:04:45;100510.47;;;8.09;100.00
31082;BME280;17737;52.586;13.284;2023-12-20T00:07:13;100507.22;;;7.98;100.00
31082;BME280;17737;52.586;13.284;2023-12-20T00:09:41;100509.78;;;8.07;100.00
31082;BME280;17737;52.586;13.284;2023-12-20T00:12:09;100505.50;;;7.97;100.00
31082;BME280;17737;52.586;13.284;2023-12-20T00:14:37;100499.66;;;7.93;100.00
31082;BME280;17737;52.586;13.284;2023-12-20T00:17:07;100494.00;;;8.04;100.00
31082;BME280;17737;52.586;13.284;2023-12-20T00:19:35;100487.94;;;8.02;100.00
31082;BME280;17737;52.586;13.284;2023-12-20T00:22:03;100494.16;;;8.03;100.00
31082;BME280;17737;52.586;13.284;2023-12-20T00:24:32;100489.38;;;7.89;100.00
31082;BME280;17737;52.586;13.284;2023-12-20T00:27:00;100481.59;;;8.03;100.00
31082;BME280;17737;52.586;13.284;2023-12-20T00:29:29;100483.53;;;7.93;100.00
31082;BME280;17737;52.586;13.284;2023-12-20T00:31:57;100486.16;;;7.85;100.00
31082;BME280;17737;52.586;13.284;2023-12-20T00:34:26;100481.28;;;7.81;100.00
31082;BME280;17737;52.586;13.284;2023-12-20T00:36:54;100487.91;;;7.94;100.00
31082;BME280;17737;52.586;13.284;2023-12-20T00:39:22;100482.56;;;8.02;100.00
31082;BME280;17737;52.586;13.284;2023-12-20T00:41:50;100482.22;;;7.97;100.00
31082;BME280;17737;52.586;13.284;2023-12-20T00:44:18;100479.22;;;8.00;100.00
31082;BME280;17737;52.586;13.284;2023-12-20T00:46:46;100482.25;;;8.05;100.00
31082;BME280;17737;52.586;13.284;2023-12-20T00:49:14;100481.44;;;8.05;100.00
31082;BME280;17737;52.586;13.284;2023-12-20T00:51:44;100482.31;;;8.13;100.00
31082;BME280;17737;52.586;13.284;2023-12-20T00:54:13;100488.16;;;8.09;100.00
31082;BME280;17737;52.586;13.284;2023-12-20T00:56:41;100482.75;;;8.01;100.00
31082;BME280;17737;52.586;13.284;2023-12-20T00:59:09;100480.69;;;7.95;100.00
31082;BME280;17737;52.586;13.284;2023-12-20T01:01:38;100488.22;;;7.91;100.00
31082;BME280;17737;52.586;13.284;2023-12-20T01:04:06;100493.25;;;7.94;100.00
31082;BME280;17737;52.586;13.284;2023-12-20T01:06:34;100480.25;;;8.07;100.00
31082;BME280;17737;52.586;13.284;2023-12-20T01:09:04;100490.31;;;8.05;100.00
31082;BME280;17737;52.586;13.284;2023-12-20T01:11:32;100492.53;;;8.10;100.00
31082;BME280;17737;52.586;13.284;2023-12-20T01:14:00;100501.47;;;7.93;100.00
31082;BME280;17737;52.586;13.284;2023-12-20T01:16:28;100502.00;;;7.96;100.00
31082;BME280;17737;52.586;13.284;2023-12-20T01:18:56;100500.56;;;7.84;100.00
31082;BME280;17737;52.586;13.284;2023-12-20T01:21:25;100495.59;;;7.89;100.00
31082;BME280;17737;52.586;13.284;2023-12-20T01:23:53;100484.16;;;7.87;100.00
31082;BME280;17737;52.586;13.284;2023-12-20T01:26:22;100491.50;;;7.85;100.00
31082;BME280;17737;52.586;13.284;2023-12-20T01:28:50;100493.44;;;7.93;100.00
31082;BME280;17737;52.586;13.284;2023-12-20T01:31:18;100495.75;;;7.88;100.00
31082;BME280;17737;52.586;13.284;2023-12-20T01:33:47;100501.19;;;7.78;100.00
31082;BME280;17737;52.586;13.284;2023-12-20T01:36:15;100492.53;;;7.84;100.00
31082;BME280;17737;52.586;13.284;2023-12-20T01:38:43;100498.16;;;7.99;100.00
31082;BME280;17737;52.586;13.284;2023-12-20T01:41:11;100489.41;;;7.97;100.00
31082;BME280;17737;52.586;13.284;2023-12-20T01:43:41;100491.19;;;7.88;100.00
31082;BME280;17737;52.586;13.284;2023-12-20T01:46:17;100489.72;;;7.94;100.00
31082;BME280;17737;52.586;13.284;2023-12-20T01:48:47;100477.34;;;7.93;100.00
31082;BME280;17737;52.586;13.284;2023-12-20T01:51:16;100473.44;;;7.87;100.00
31082;BME280;17737;52.586;13.284;2023-12-20T01:53:45;100469.72;;;7.88;100.00
31082;BME280;17737;52.586;13.284;2023-12-20T01:56:14;100478.47;;;7.90;100.00
31082;BME280;17737;52.586;13.284;2023-12-20T01:58:46;100482.91;;;7.99;100.00
31082;BME280;17737;52.586;13.284;2023-12-20T02:01:16;100484.47;;;7.84;100.00
31082;BME280;17737;52.586;13.284;2023-12-20T02:03:45;100471.38;;;7.81;100.00
31082;BME280;17737;52.586;13.284;2023-12-20T02:06:14;100463.03;;;7.84;100.00
31082;BME280;17737;52.586;13.284;2023-12-20T02:08:43;100465.53;;;7.86;100.00
31082;BME280;17737;52.586;13.284;2023-12-20T02:11:11;100455.97;;;7.83;100.00
31082;BME280;17737;52.586;13.284;2023-12-20T02:13:38;100458.81;;;7.82;100.00
31082;BME280;17737;52.586;13.284;2023-12-20T02:16:08;100454.28;;;7.82;100.00
31082;BME280;17737;52.586;13.284;2023-12-20T02:18:36;100452.69;;;7.72;100.00
31082;BME280;17737;52.586;13.284;2023-12-20T02:21:05;100458.06;;;7.72;100.00
31082;BME280;17737;52.586;13.284;2023-12-20T02:23:35;100462.91;;;7.68;100.00
31082;BME280;17737;52.586;13.284;2023-12-20T02:26:04;100454.84;;;7.68;100.00
31082;BME280;17737;52.586;13.284;2023-12-20T02:28:33;100463.59;;;7.70;100.00
31082;BME280;17737;52.586;13.284;2023-12-20T02:31:03;100464.88;;;7.66;100.00
31082;BME280;17737;52.586;13.284;2023-12-20T02:33:31;100467.28;;;7.69;100.00
31082;BME280;17737;52.586;13.284;2023-12-20T02:35:59;100473.00;;;7.74;100.00
31082;BME280;17737;52.586;13.284;2023-12-20T02:38:27;100462.44;;;7.73;100.00
31082;BME280;17737;52.586;13.284;2023-12-20T02:40:57;100462.59;;;7.71;100.00
31082;BME280;17737;52.586;13.284;2023-12-20T02:43:25;100466.81;;;7.74;100.00
31082;BME280;17737;52.586;13.284;2023-12-20T02:45:53;100456.72;;;7.68;100.00
31082;BME280;17737;52.586;13.284;2023-12-20T02:48:22;100460.91;;;7.70;100.00
31082;BME280;17737;52.586;13.284;2023-12-20T02:50:51;100467.97;;;7.71;100.00
31082;BME280;17737;52.586;13.284;2023-12-20T02:53:19;100461.13;;;7.77;100.00
31082;BME280;17737;52.586;13.284;2023-12-20T02:55:47;100464.22;;;7.64;100.00
31082;BME280;17737;52.586;13.284;2023-12-20T02:58:17;100467.66;;;7.74;100.00
31082;BME280;17737;52.586;13.284;2023-12-20T03:00:45;100470.22;;;7.84;100.00
31082;BME280;17737;52.586;13.284;2023-12-20T03:03:13;100467.34;;;7.60;100.00
31082;BME280;17737;52.586;13.284;2023-12-20T03:05:41;100468.47;;;7.75;100.00
31082;BME280;17737;52.586;13.284;2023-12-20T03:08:09;100468.69;;;7.56;100.00
31082;BME280;17737;52.586;13.284;2023-12-20T03:10:37;100468.69;;;7.56;100.00
31082;BME280;17737;52.586;13.284;2023-12-20T03:13:06;100472.50;;;7.53;100.00
31082;BME280;17737;52.586;13.284;2023-12-20T03:15:35;100466.53;;;7.59;100.00
31082;BME280;17737;52.586;13.284;2023-12-20T03:18:04;100467.69;;;7.57;100.00
31082;BME280;17737;52.586;13.284;2023-12-20T03:20:32;100478.56;;;7.55;100.00
31082;BME280;17737;52.586;13.284;2023-12-20T03:23:01;100483.72;;;7.49;100.00
31082;BME280;17737;52.586;13.284;2023-12-20T03:25:29;100480.00;;;7.50;100.00
31082;BME280;17737;52.586;13.284;2023-12-20T03:27:57;100474.34;;;7.53;100.00
31082;BME280;17737;52.586;13.284;2023-12-20T03:30:25;100470.16;;;7.50;100.00
31082;BME280;17737;52.586;13.284;2023-12-20T03:32:55;100480.34;;;7.47;100.00
31082;BME280;17737;52.586;13.284;2023-12-20T03:35:23;100469.50;;;7.56;100.00
31082;BME280;17737;52.586;13.284;2023-12-20T03:37:51;100475.50;;;7.50;100.00
31082;BME280;17737;52.586;13.284;2023-12-20T03:40:19;100476.72;;;7.56;100.00
31082;BME280;17737;52.586;13.284;2023-12-20T03:42:47;100471.38;;;7.56;100.00
31082;BME280;17737;52.586;13.284;2023-12-20T03:45:15;100462.00;;;7.60;100.00
31082;BME280;17737;52.586;13.284;2023-12-20T03:47:43;100457.72;;;7.49;100.00
31082;BME280;17737;52.586;13.284;2023-12-20T03:50:13;100456.09;;;7.56;100.00
31082;BME280;17737;52.586;13.284;2023-12-20T03:52:41;100464.69;;;7.60;100.00
31082;BME280;17737;52.586;13.284;2023-12-20T03:55:10;100469.88;;;7.61;100.00
31082;BME280;17737;52.586;13.284;2023-12-20T03:57:38;100460.72;;;7.46;100.00
31082;BME280;17737;52.586;13.284;2023-12-20T04:00:08;100465.00;;;7.39;100.00
31082;BME280;17737;52.586;13.284;2023-12-20T04:02:37;100458.88;;;7.47;100.00
31082;BME280;17737;52.586;13.284;2023-12-20T04:05:06;100455.19;;;7.48;100.00
31082;BME280;17737;52.586;13.284;2023-12-20T04:07:36;100445.31;;;7.48;100.00
31082;BME280;17737;52.586;13.284;2023-12-20T04:10:05;100443.50;;;7.31;100.00
31082;BME280;17737;52.586;13.284;2023-12-20T04:12:34;100434.19;;;7.35;100.00
31082;BME280;17737;52.586;13.284;2023-12-20T04:15:03;100433.66;;;7.32;100.00
31082;BME280;17737;52.586;13.284;2023-12-20T04:17:36;100430.81;;;7.33;100.00
31082;BME280;17737;52.586;13.284;2023-12-20T04:20:05;100435.47;;;7.31;100.00
31082;BME280;17737;52.586;13.284;2023-12-20T04:22:36;100440.41;;;7.18;100.00
31082;BME280;17737;52.586;13.284;2023-12-20T04:25:04;100429.47;;;7.11;100.00
31082;BME280;17737;52.586;13.284;2023-12-20T04:27:33;100439.91;;;7.05;100.00
31082;BME280;17737;52.586;13.284;2023-12-20T04:30:01;100442.31;;;7.08;100.00
31082;BME280;17737;52.586;13.284;2023-12-20T04:32:30;100439.09;;;7.04;100.00
31082;BME280;17737;52.586;13.284;2023-12-20T04:34:59;100440.47;;;6.91;100.00
31082;BME280;17737;52.586;13.284;2023-12-20T04:37:28;100434.81;;;6.94;100.00
31082;BME280;17737;52.586;13.284;2023-12-20T04:39:58;100438.50;;;6.93;100.00
31082;BME280;17737;52.586;13.284;2023-12-20T04:42:27;100434.03;;;6.84;100.00
31082;BME280;17737;52.586;13.284;2023-12-20T04:44:56;100434.03;;;6.84;100.00
31082;BME280;17737;52.586;13.284;2023-12-20T04:47:24;100426.75;;;6.76;100.00
31082;BME280;17737;52.586;13.284;2023-12-20T04:49:53;100431.88;;;6.70;100.00
31082;BME280;17737;52.586;13.284;2023-12-20T04:52:21;100440.38;;;6.83;100.00
31082;BME280;17737;52.586;13.284;2023-12-20T04:54:50;100441.69;;;6.79;100.00
31082;BME280;17737;52.586;13.284;2023-12-20T04:57:20;100436.22;;;6.71;100.00
31082;BME280;17737;52.586;13.284;2023-12-20T04:59:48;100422.25;;;6.77;100.00
31082;BME280;17737;52.586;13.284;2023-12-20T05:02:16;100431.56;;;6.73;100.00
31082;BME280;17737;52.586;13.284;2023-12-20T05:04:45;100436.34;;;6.79;100.00
31082;BME280;17737;52.586;13.284;2023-12-20T05:07:13;100428.13;;;6.63;100.00
31082;BME280;17737;52.586;13.284;2023-12-20T05:09:42;100426.06;;;6.57;100.00
31082;BME280;17737;52.586;13.284;2023-12-20T05:12:10;100427.66;;;6.50;100.00
31082;BME280;17737;52.586;13.284;2023-12-20T05:14:40;100430.00;;;6.53;100.00
31082;BME280;17737;52.586;13.284;2023-12-20T05:17:08;100439.59;;;6.55;100.00
31082;BME280;17737;52.586;13.284;2023-12-20T05:19:37;100425.00;;;6.40;100.00
31082;BME280;17737;52.586;13.284;2023-12-20T05:22:05;100433.53;;;6.53;100.00
31082;BME280;17737;52.586;13.284;2023-12-20T05:24:34;100431.59;;;6.46;100.00
31082;BME280;17737;52.586;13.284;2023-12-20T05:27:02;100439.78;;;6.44;100.00
31082;BME280;17737;52.586;13.284;2023-12-20T05:29:31;100433.69;;;6.52;100.00
31082;BME280;17737;52.586;13.284;2023-12-20T05:32:01;100431.44;;;6.47;100.00
31082;BME280;17737;52.586;13.284;2023-12-20T05:34:31;100426.78;;;6.49;100.00
31082;BME280;17737;52.586;13.284;2023-12-20T05:37:00;100419.06;;;6.46;100.00
31082;BME280;17737;52.586;13.284;2023-12-20T05:39:29;100425.84;;;6.41;100.00
31082;BME280;17737;52.586;13.284;2023-12-20T05:41:58;100430.66;;;6.37;100.00
31082;BME280;17737;52.586;13.284;2023-12-20T05:44:26;100426.22;;;6.28;100.00
31082;BME280;17737;52.586;13.284;2023-12-20T05:46:54;100422.31;;;6.23;100.00
31082;BME280;17737;52.586;13.284;2023-12-20T05:49:24;100408.22;;;6.21;100.00
31082;BME280;17737;52.586;13.284;2023-12-20T05:51:53;100423.28;;;6.22;100.00
31082;BME280;17737;52.586;13.284;2023-12-20T05:54:21;100408.56;;;6.35;100.00
31082;BME280;17737;52.586;13.284;2023-12-20T05:56:50;100419.41;;;6.34;100.00
31082;BME280;17737;52.586;13.284;2023-12-20T05:59:18;100412.38;;;6.33;100.00
31082;BME280;17737;52.586;13.284;2023-12-20T06:01:46;100396.78;;;6.28;100.00
31082;BME280;17737;52.586;13.284;2023-12-20T06:04:15;100407.34;;;6.30;100.00
31082;BME280;17737;52.586;13.284;2023-12-20T06:06:47;100395.78;;;6.29;100.00
31082;BME280;17737;52.586;13.284;2023-12-20T06:09:15;100398.63;;;6.28;100.00
31082;BME280;17737;52.586;13.284;2023-12-20T06:11:43;100397.53;;;6.21;100.00
31082;BME280;17737;52.586;13.284;2023-12-20T06:14:11;100396.13;;;6.17;100.00
31082;BME280;17737;52.586;13.284;2023-12-20T06:16:40;100405.63;;;6.11;100.00
31082;BME280;17737;52.586;13.284;2023-12-20T06:19:08;100404.16;;;6.17;100.00
31082;BME280;17737;52.586;13.284;2023-12-20T06:21:36;100400.44;;;6.27;100.00
31082;BME280;17737;52.586;13.284;2023-12-20T06:24:09;100397.53;;;6.21;100.00
31082;BME280;17737;52.586;13.284;2023-12-20T06:26:38;100405.09;;;6.25;100.00
31082;BME280;17737;52.586;13.284;2023-12-20T06:29:06;100408.47;;;6.27;100.00
31082;BME280;17737;52.586;13.284;2023-12-20T06:31:35;100409.63;;;6.25;100.00
31082;BME280;17737;52.586;13.284;2023-12-20T06:34:03;100414.47;;;6.12;100.00
31082;BME280;17737;52.586;13.284;2023-12-20T06:40:26;100404.56;;;6.22;100.00
31082;BME280;17737;52.586;13.284;2023-12-20T06:42:54;100408.78;;;6.24;100.00
31082;BME280;17737;52.586;13.284;2023-12-20T06:45:34;100394.84;;;6.21;100.00
31082;BME280;17737;52.586;13.284;2023-12-20T06:48:02;100402.25;;;6.27;100.00
31082;BME280;17737;52.586;13.284;2023-12-20T06:50:31;100404.94;;;6.27;100.00
31082;BME280;17737;52.586;13.284;2023-12-20T06:52:59;100398.63;;;6.28;100.00
31082;BME280;17737;52.586;13.284;2023-12-20T06:55:35;100387.63;;;6.31;100.00
31082;BME280;17737;52.586;13.284;2023-12-20T06:58:04;100386.22;;;6.27;100.00
31082;BME280;17737;52.586;13.284;2023-12-20T07:00:33;100378.59;;;6.32;100.00
31082;BME280;17737;52.586;13.284;2023-12-20T07:03:12;100385.31;;;6.36;100.00
31082;BME280;17737;52.586;13.284;2023-12-20T07:05:40;100378.31;;;6.35;100.00
31082;BME280;17737;52.586;13.284;2023-12-20T07:08:09;100391.38;;;6.38;100.00
31082;BME280;17737;52.586;13.284;2023-12-20T07:10:39;100381.97;;;6.34;100.00
31082;BME280;17737;52.586;13.284;2023-12-20T07:13:08;100387.25;;;6.43;100.00
31082;BME280;17737;52.586;13.284;2023-12-20T07:15:36;100386.59;;;6.32;100.00
31082;BME280;17737;52.586;13.284;2023-12-20T07:18:05;100380.22;;;6.42;100.00
31082;BME280;17737;52.586;13.284;2023-12-20T07:20:34;100386.88;;;6.56;100.00
31082;BME280;17737;52.586;13.284;2023-12-20T07:23:02;100383.66;;;6.52;100.00
31082;BME280;17737;52.586;13.284;2023-12-20T07:25:31;100379.00;;;6.54;100.00
31082;BME280;17737;52.586;13.284;2023-12-20T07:28:01;100373.81;;;6.53;100.00
31082;BME280;17737;52.586;13.284;2023-12-20T07:30:30;100360.78;;;6.40;100.00
31082;BME280;17737;52.586;13.284;2023-12-20T07:32:58;100367.38;;;6.46;100.00
31082;BME280;17737;52.586;13.284;2023-12-20T07:35:28;100368.38;;;6.45;100.00
31082;BME280;17737;52.586;13.284;2023-12-20T07:37:56;100372.28;;;6.50;100.00
31082;BME280;17737;52.586;13.284;2023-12-20T07:40:25;100362.72;;;6.48;100.00
31082;BME280;17737;52.586;13.284;2023-12-20T07:42:53;100361.03;;;6.47;100.00
31082;BME280;17737;52.586;13.284;2023-12-20T07:45:23;100372.34;;;6.41;100.00
31082;BME280;17737;52.586;13.284;2023-12-20T07:47:51;100368.69;;;6.42;100.00
31082;BME280;17737;52.586;13.284;2023-12-20T07:50:19;100356.47;;;6.57;100.00
31082;BME280;17737;52.586;13.284;2023-12-20T07:52:48;100366.41;;;6.47;100.00
31082;BME280;17737;52.586;13.284;2023-12-20T07:55:16;100358.25;;;6.39;100.00
31082;BME280;17737;52.586;13.284;2023-12-20T07:57:44;100374.28;;;6.48;100.00
31082;BME280;17737;52.586;13.284;2023-12-20T08:00:14;100363.09;;;6.53;100.00
31082;BME280;17737;52.586;13.284;2023-12-20T08:02:46;100367.06;;;6.49;100.00
31082;BME280;17737;52.586;13.284;2023-12-20T08:05:15;100374.50;;;6.55;100.00
31082;BME280;17737;52.586;13.284;2023-12-20T08:07:44;100371.13;;;6.53;100.00
31082;BME280;17737;52.586;13.284;2023-12-20T08:10:13;100365.63;;;6.54;100.00
31082;BME280;17737;52.586;13.284;2023-12-20T08:12:41;100371.06;;;6.62;100.00
31082;BME280;17737;52.586;13.284;2023-12-20T08:15:10;100367.00;;;6.58;100.00
31082;BME280;17737;52.586;13.284;2023-12-20T08:17:39;100376.19;;;6.56;100.00
31082;BME280;17737;52.586;13.284;2023-12-20T08:20:09;100376.19;;;6.56;100.00
31082;BME280;17737;52.586;13.284;2023-12-20T08:22:41;100368.31;;;6.54;100.00
31082;BME280;17737;52.586;13.284;2023-12-20T08:25:09;100364.50;;;6.57;100.00
31082;BME280;17737;52.586;13.284;2023-12-20T08:27:39;100360.81;;;6.58;100.00
31082;BME280;17737;52.586;13.284;2023-12-20T08:30:09;100373.41;;;6.48;100.00
31082;BME280;17737;52.586;13.284;2023-12-20T08:32:39;100364.81;;;6.54;100.00
31082;BME280;17737;52.586;13.284;2023-12-20T08:35:09;100357.53;;;6.64;100.00
31082;BME280;17737;52.586;13.284;2023-12-20T08:37:37;100356.69;;;6.81;100.00
31082;BME280;17737;52.586;13.284;2023-12-20T08:40:06;100347.28;;;6.77;100.00
31082;BME280;17737;52.586;13.284;2023-12-20T08:42:35;100329.44;;;6.85;100.00
31082;BME280;17737;52.586;13.284;2023-12-20T08:45:04;100330.06;;;6.79;100.00
31082;BME280;17737;52.586;13.284;2023-12-20T08:47:33;100328.59;;;6.85;100.00
31082;BME280;17737;52.586;13.284;2023-12-20T08:50:02;100339.00;;;6.88;100.00
31082;BME280;17737;52.586;13.284;2023-12-20T08:52:32;100330.84;;;6.89;100.00
31082;BME280;17737;52.586;13.284;2023-12-20T08:55:01;100332.88;;;6.78;100.00
31082;BME280;17737;52.586;13.284;2023-12-20T08:57:29;100333.50;;;6.89;100.00
31082;BME280;17737;52.586;13.284;2023-12-20T08:59:58;100337.00;;;6.90;100.00
31082;BME280;17737;52.586;13.284;2023-12-20T09:02:26;100345.41;;;6.95;100.00
31082;BME280;17737;52.586;13.284;2023-12-20T09:04:55;100333.50;;;6.89;100.00
31082;BME280;17737;52.586;13.284;2023-12-20T09:08:45;100330.41;;;7.02;100.00
31082;BME280;17737;52.586;13.284;2023-12-20T09:11:14;100324.59;;;7.06;100.00
31082;BME280;17737;52.586;13.284;2023-12-20T09:13:44;100320.53;;;7.02;100.00
31082;BME280;17737;52.586;13.284;2023-12-20T09:16:12;100327.03;;;7.17;100.00
31082;BME280;17737;52.586;13.284;2023-12-20T09:18:42;100324.28;;;7.09;100.00
31082;BME280;17737;52.586;13.284;2023-12-20T09:21:11;100318.28;;;7.15;100.00
31082;BME280;17737;52.586;13.284;2023-12-20T10:57:32;100214.06;;;7.30;100.00
31082;BME280;17737;52.586;13.284;2023-12-20T11:00:06;100190.66;;;7.40;100.00
31082;BME280;17737;52.586;13.284;2023-12-20T11:02:40;100184.81;;;7.53;100.00
31082;BME280;17737;52.586;13.284;2023-12-20T11:05:16;100190.88;;;7.55;100.00
31082;BME280;17737;52.586;13.284;2023-12-20T11:07:58;100180.63;;;7.42;100.00
31082;BME280;17737;52.586;13.284;2023-12-20T11:10:33;100173.97;;;7.54;100.00
31082;BME280;17737;52.586;13.284;2023-12-20T11:13:17;100167.75;;;7.46;100.00
31082;BME280;17737;52.586;13.284;2023-12-20T11:15:50;100168.63;;;7.20;100.00
31082;BME280;17737;52.586;13.284;2023-12-20T11:18:18;100162.81;;;7.25;100.00
31082;BME280;17737;52.586;13.284;2023-12-20T11:20:46;100157.78;;;7.30;100.00
31082;BME280;17737;52.586;13.284;2023-12-20T11:23:16;100160.41;;;7.22;100.00
31082;BME280;17737;52.586;13.284;2023-12-20T11:25:48;100160.91;;;7.17;100.00
31082;BME280;17737;52.586;13.284;2023-12-20T11:28:23;100152.19;;;7.15;100.00
31082;BME280;17737;52.586;13.284;2023-12-20T11:30:53;100150.16;;;7.09;100.00
31082;BME280;17737;52.586;13.284;2023-12-20T11:33:22;100145.84;;;7.16;100.00
31082;BME280;17737;52.586;13.284;2023-12-20T11:35:56;100148.03;;;7.21;100.00
31082;BME280;17737;52.586;13.284;2023-12-20T11:38:25;100130.31;;;7.28;100.00
31082;BME280;17737;52.586;13.284;2023-12-20T11:40:54;100117.09;;;7.26;100.00
31082;BME280;17737;52.586;13.284;2023-12-20T11:43:35;100112.06;;;7.32;100.00
31082;BME280;17737;52.586;13.284;2023-12-20T11:46:05;100102.50;;;7.29;100.00
31082;BME280;17737;52.586;13.284;2023-12-20T11:48:35;100105.34;;;7.27;100.00
31082;BME280;17737;52.586;13.284;2023-12-20T11:51:09;100101.81;;;7.27;100.00
31082;BME280;17737;52.586;13.284;2023-12-20T11:53:38;100082.28;;;7.43;100.00
31082;BME280;17737;52.586;13.284;2023-12-20T11:56:06;100071.72;;;7.49;100.00
31082;BME280;17737;52.586;13.284;2023-12-20T11:58:36;100062.69;;;7.50;100.00
31082;BME280;17737;52.586;13.284;2023-12-20T12:01:05;100052.31;;;7.55;100.00
31082;BME280;17737;52.586;13.284;2023-12-20T12:03:35;100049.31;;;7.58;100.00
31082;BME280;17737;52.586;13.284;2023-12-20T12:06:03;100045.28;;;7.54;100.00
31082;BME280;17737;52.586;13.284;2023-12-20T12:08:32;100052.50;;;7.46;100.00
31082;BME280;17737;52.586;13.284;2023-12-20T12:11:00;100049.97;;;7.52;100.00
31082;BME280;17737;52.586;13.284;2023-12-20T12:13:28;100033.53;;;7.39;100.00
31082;BME280;17737;52.586;13.284;2023-12-20T12:15:58;100019.78;;;7.34;100.00
31082;BME280;17737;52.586;13.284;2023-12-20T12:18:26;100027.53;;;7.37;100.00
31082;BME280;17737;52.586;13.284;2023-12-20T12:21:00;100022.97;;;7.29;100.00
31082;BME280;17737;52.586;13.284;2023-12-20T12:23:38;100028.31;;;7.21;100.00
31082;BME280;17737;52.586;13.284;2023-12-20T12:26:06;100018.59;;;7.20;100.00
31082;BME280;17737;52.586;13.284;2023-12-20T12:28:35;100020.13;;;7.23;100.00
31082;BME280;17737;52.586;13.284;2023-12-20T12:31:05;100021.59;;;7.09;100.00
31082;BME280;17737;52.586;13.284;2023-12-20T12:33:33;100021.25;;;7.04;100.00
31082;BME280;17737;52.586;13.284;2023-12-20T12:36:01;100018.75;;;7.03;100.00
31082;BME280;17737;52.586;13.284;2023-12-20T12:38:31;100014.19;;;6.95;100.00
31082;BME280;17737;52.586;13.284;2023-12-20T12:41:00;100010.84;;;7.01;100.00
31082;BME280;17737;52.586;13.284;2023-12-20T12:43:29;99984.38;;;6.90;100.00
31082;BME280;17737;52.586;13.284;2023-12-20T12:45:59;99982.06;;;7.03;100.00
31082;BME280;17737;52.586;13.284;2023-12-20T12:48:29;99985.56;;;6.96;100.00
31082;BME280;17737;52.586;13.284;2023-12-20T12:50:57;99978.56;;;7.03;100.00
31082;BME280;17737;52.586;13.284;2023-12-20T12:53:26;99973.00;;;6.96;100.00
31082;BME280;17737;52.586;13.284;2023-12-20T12:55:54;99971.50;;;6.94;100.00
31082;BME280;17737;52.586;13.284;2023-12-20T12:58:22;99989.06;;;6.96;100.00
31082;BME280;17737;52.586;13.284;2023-12-20T13:00:52;99987.06;;;6.98;100.00
31082;BME280;17737;52.586;13.284;2023-12-20T13:03:20;99992.59;;;7.05;100.00
31082;BME280;17737;52.586;13.284;2023-12-20T13:05:50;100007.69;;;6.98;100.00
31082;BME280;17737;52.586;13.284;2023-12-20T13:08:18;100011.34;;;6.97;100.00
31082;BME280;17737;52.586;13.284;2023-12-20T13:10:46;100025.56;;;6.89;100.00
31082;BME280;17737;52.586;13.284;2023-12-20T13:13:14;100038.72;;;6.75;100.00
31082;BME280;17737;52.586;13.284;2023-12-20T13:15:42;100033.50;;;6.73;100.00
31082;BME280;17737;52.586;13.284;2023-12-20T13:18:14;100035.84;;;6.68;100.00
31082;BME280;17737;52.586;13.284;2023-12-20T13:20:42;100047.06;;;6.72;100.00
31082;BME280;17737;52.586;13.284;2023-12-20T13:23:12;100047.69;;;6.66;100.00
31082;BME280;17737;52.586;13.284;2023-12-20T13:25:40;100034.47;;;6.64;100.00
31082;BME280;17737;52.586;13.284;2023-12-20T13:28:08;100037.31;;;6.63;100.00
31082;BME280;17737;52.586;13.284;2023-12-20T13:30:36;100027.81;;;6.68;100.00
31082;BME280;17737;52.586;13.284;2023-12-20T13:33:05;100014.91;;;6.64;100.00
31082;BME280;17737;52.586;13.284;2023-12-20T13:35:34;100022.28;;;6.70;100.00
31082;BME280;17737;52.586;13.284;2023-12-20T13:38:02;100012.44;;;6.70;100.00
31082;BME280;17737;52.586;13.284;2023-12-20T13:40:32;100015.09;;;6.70;100.00
31082;BME280;17737;52.586;13.284;2023-12-20T13:43:01;100033.31;;;6.67;100.00
31082;BME280;17737;52.586;13.284;2023-12-20T13:45:30;100029.75;;;6.50;100.00
31082;BME280;17737;52.586;13.284;2023-12-20T13:47:58;100033.53;;;6.40;100.00
31082;BME280;17737;52.586;13.284;2023-12-20T13:50:26;100037.19;;;6.39;100.00
31082;BME280;17737;52.586;13.284;2023-12-20T13:52:55;100032.28;;;6.26;100.00
31082;BME280;17737;52.586;13.284;2023-12-20T13:55:23;100044.66;;;6.27;100.00
31082;BME280;17737;52.586;13.284;2023-12-20T13:57:55;100046.47;;;6.27;100.00
31082;BME280;17737;52.586;13.284;2023-12-20T14:00:24;100054.00;;;6.23;100.00
31082;BME280;17737;52.586;13.284;2023-12-20T14:02:52;100048.84;;;6.30;100.00
31082;BME280;17737;52.586;13.284;2023-12-20T14:05:20;100048.66;;;6.23;100.00
31082;BME280;17737;52.586;13.284;2023-12-20T14:07:54;100056.00;;;6.21;100.00
31082;BME280;17737;52.586;13.284;2023-12-20T14:10:24;100057.97;;;6.19;100.00
31082;BME280;17737;52.586;13.284;2023-12-20T14:12:55;100064.78;;;6.14;100.00
31082;BME280;17737;52.586;13.284;2023-12-20T14:15:23;100067.50;;;6.22;100.00
31082;BME280;17737;52.586;13.284;2023-12-20T14:17:52;100074.56;;;6.23;100.00
31082;BME280;17737;52.586;13.284;2023-12-20T14:20:21;100077.44;;;6.29;100.00
31082;BME280;17737;52.586;13.284;2023-12-20T14:22:49;100091.28;;;6.25;100.00
31082;BME280;17737;52.586;13.284;2023-12-20T14:25:17;100089.19;;;6.36;100.00
31082;BME280;17737;52.586;13.284;2023-12-20T14:27:45;100086.38;;;6.20;100.00
31082;BME280;17737;52.586;13.284;2023-12-20T14:30:16;100097.56;;;6.16;100.00